Time;durP1;ratioP1;P1;durP2;ratioP2;P2;SDS_P1;SDS_P2;PMS_P1;PMS_P2;Temp;Humidity;BMP_temperature;BMP_pressure;BME280_temperature;BME280_humidity;BME280_pressure;Samples;Min_cycle;Max_cycle;Signal;HPM_P1;HPM_P2
2021/06/11 00:01:00;;;;;;;1.75;0.95;;;18.40;99.90;;;;;;5028136;28;20029;-70
2021/06/11 00:03:25;;;;;;;2.75;1.33;;;18.30;99.90;;;;;;5044635;28;20030;-71
2021/06/11 00:05:51;;;;;;;2.10;1.23;;;18.30;99.90;;;;;;5044123;28;20058;-70
2021/06/11 00:08:16;;;;;;;2.88;1.73;;;18.30;99.90;;;;;;5044450;28;20032;-69
2021/06/11 00:10:42;;;;;;;1.50;0.93;;;18.20;99.90;;;;;;5044711;28;20078;-71
2021/06/11 00:13:08;;;;;;;3.72;1.70;;;18.20;99.90;;;;;;5059402;28;20040;-69
2021/06/11 00:15:34;;;;;;;3.65;1.83;;;18.10;99.90;;;;;;5044514;28;20049;-70
2021/06/11 00:18:00;;;;;;;1.85;1.55;;;18.10;99.90;;;;;;5044288;28;20107;-71
2021/06/11 00:20:26;;;;;;;3.08;1.80;;;18.00;99.90;;;;;;5044013;28;20026;-71
2021/06/11 00:22:52;;;;;;;2.33;1.42;;;18.00;99.90;;;;;;5043233;28;20029;-71
2021/06/11 00:25:23;;;;;;;2.80;1.77;;;18.00;99.90;;;;;;5042991;28;20053;-69
2021/06/11 00:27:49;;;;;;;2.95;1.70;;;18.00;99.90;;;;;;5044019;28;20022;-70
2021/06/11 00:30:18;;;;;;;1.95;1.30;;;17.90;99.90;;;;;;5043086;28;20022;-70
2021/06/11 00:32:43;;;;;;;2.15;1.30;;;17.90;99.90;;;;;;5044084;28;20040;-69
2021/06/11 00:35:10;;;;;;;4.22;1.55;;;17.90;99.90;;;;;;5043863;28;20436;-69
2021/06/11 00:37:35;;;;;;;2.60;1.27;;;17.90;99.90;;;;;;5044320;28;20033;-70
2021/06/11 00:40:04;;;;;;;2.33;1.63;;;17.80;99.90;;;;;;5044094;28;20026;-69
2021/06/11 00:42:29;;;;;;;2.20;1.65;;;17.80;99.90;;;;;;5043827;28;20498;-69
2021/06/11 00:44:55;;;;;;;2.30;1.52;;;17.80;99.90;;;;;;5044340;28;20037;-71
2021/06/11 00:47:21;;;;;;;3.35;1.60;;;17.70;99.90;;;;;;5043954;28;20030;-69
2021/06/11 00:49:48;;;;;;;2.00;1.40;;;17.70;99.90;;;;;;5044085;28;20022;-67
2021/06/11 00:52:15;;;;;;;2.50;1.63;;;17.80;99.90;;;;;;5043770;28;20045;-68
2021/06/11 00:54:40;;;;;;;3.63;1.85;;;17.70;99.90;;;;;;5043734;28;20026;-70
2021/06/11 00:57:06;;;;;;;2.08;1.67;;;17.70;99.90;;;;;;5044146;28;20040;-68
2021/06/11 00:59:32;;;;;;;2.25;1.85;;;17.70;99.90;;;;;;5044092;28;20033;-68
2021/06/11 01:01:58;;;;;;;7.28;2.08;;;17.70;99.90;;;;;;5043626;28;20393;-68
2021/06/11 01:04:24;;;;;;;2.28;1.60;;;17.60;99.90;;;;;;5044115;28;20048;-69
2021/06/11 01:06:50;;;;;;;6.20;2.45;;;17.60;99.90;;;;;;5043676;28;20127;-69
2021/06/11 01:09:17;;;;;;;5.88;2.03;;;17.60;99.90;;;;;;5046191;28;20041;-69
2021/06/11 01:11:44;;;;;;;3.60;1.90;;;17.60;99.90;;;;;;5047763;28;20037;-69
2021/06/11 01:14:10;;;;;;;2.65;1.50;;;17.60;99.90;;;;;;5047509;28;20100;-71
2021/06/11 01:16:37;;;;;;;3.00;1.77;;;17.60;99.90;;;;;;5047260;28;20060;-69
2021/06/11 01:19:05;;;;;;;2.55;1.45;;;17.50;99.90;;;;;;5047582;28;20457;-70
2021/06/11 01:21:32;;;;;;;4.45;1.90;;;17.50;99.90;;;;;;5047217;28;20034;-69
2021/06/11 01:24:13;;;;;;;6.75;2.28;;;17.50;99.90;;;;;;5047292;28;20041;-70
2021/06/11 01:26:42;;;;;;;3.10;1.63;;;17.40;99.90;;;;;;5047329;28;20025;-69
2021/06/11 01:29:14;;;;;;;4.63;2.40;;;17.40;99.90;;;;;;5046945;28;20567;-70
2021/06/11 01:31:45;;;;;;;3.13;1.60;;;17.30;99.90;;;;;;5047418;28;20033;-70
2021/06/11 01:34:25;;;;;;;4.13;2.00;;;17.30;99.90;;;;;;5047208;28;20071;-69
2021/06/11 01:36:55;;;;;;;4.18;1.92;;;17.30;99.90;;;;;;5047001;28;20088;-69
2021/06/11 01:39:22;;;;;;;3.13;1.60;;;17.20;99.90;;;;;;5047345;28;20089;-70
2021/06/11 01:41:50;;;;;;;2.60;1.52;;;17.20;99.90;;;;;;5047141;28;20030;-69
2021/06/11 01:44:18;;;;;;;4.10;2.20;;;17.20;99.90;;;;;;5046735;28;20079;-71
2021/06/11 01:46:46;;;;;;;3.22;1.83;;;17.10;99.90;;;;;;5047074;28;20026;-69
2021/06/11 01:49:13;;;;;;;4.53;2.10;;;17.10;99.90;;;;;;5046745;28;20101;-69
2021/06/11 01:51:40;;;;;;;5.53;1.33;;;17.10;99.90;;;;;;5046361;28;20029;-69
2021/06/11 01:54:10;;;;;;;4.60;2.03;;;17.00;99.90;;;;;;5046807;28;20029;-71
2021/06/11 01:56:37;;;;;;;3.95;2.03;;;17.10;99.90;;;;;;5046917;28;20098;-69
2021/06/11 01:59:03;;;;;;;4.32;1.65;;;17.00;99.90;;;;;;5046896;28;20362;-69
2021/06/11 02:01:33;;;;;;;2.80;1.80;;;17.00;99.90;;;;;;5047023;28;20036;-70
2021/06/11 02:03:59;;;;;;;2.90;1.70;;;16.90;99.90;;;;;;5046192;28;20109;-70
2021/06/11 02:06:27;;;;;;;2.15;1.42;;;16.80;99.90;;;;;;5046783;28;20048;-70
2021/06/11 02:08:53;;;;;;;3.35;1.70;;;16.80;99.90;;;;;;5046801;28;20056;-69
2021/06/11 02:11:20;;;;;;;1.95;1.42;;;16.80;99.90;;;;;;5046010;28;20025;-69
2021/06/11 02:13:48;;;;;;;3.05;1.83;;;16.70;99.90;;;;;;5046412;28;20026;-69
2021/06/11 02:16:15;;;;;;;3.22;1.95;;;16.80;99.90;;;;;;5046645;28;20017;-70
2021/06/11 02:18:42;;;;;;;2.55;1.77;;;16.80;99.90;;;;;;5046002;28;20077;-70
2021/06/11 02:21:09;;;;;;;3.20;2.05;;;16.70;99.90;;;;;;5045694;28;20028;-69
2021/06/11 02:23:36;;;;;;;3.33;1.80;;;16.70;99.90;;;;;;5045966;28;20053;-70
2021/06/11 02:26:04;;;;;;;4.20;1.58;;;16.70;99.90;;;;;;5046203;28;20085;-69
2021/06/11 02:28:30;;;;;;;3.42;1.92;;;16.60;99.90;;;;;;5046652;28;20061;-71
2021/06/11 02:30:58;;;;;;;3.03;1.85;;;16.60;99.90;;;;;;5046323;28;20026;-70
2021/06/11 02:33:25;;;;;;;4.05;2.30;;;16.60;99.90;;;;;;5046423;28;20056;-70
2021/06/11 02:35:50;;;;;;;2.53;1.83;;;16.50;99.90;;;;;;5046098;28;20025;-70
2021/06/11 02:38:16;;;;;;;4.53;2.20;;;16.50;99.90;;;;;;5046005;28;20045;-69
2021/06/11 02:40:42;;;;;;;5.80;2.30;;;16.50;99.90;;;;;;5046104;28;20424;-69
2021/06/11 02:43:11;;;;;;;3.72;2.63;;;16.50;99.90;;;;;;5045972;28;20051;-69
2021/06/11 02:45:44;;;;;;;4.70;2.53;;;16.40;99.90;;;;;;5045762;28;20029;-70
2021/06/11 02:48:37;;;;;;;3.08;2.22;;;16.40;99.90;;;;;;5045903;28;20085;-70
2021/06/11 02:51:17;;;;;;;4.60;2.25;;;16.40;99.90;;;;;;5045542;28;20083;-72
2021/06/11 02:53:45;;;;;;;5.80;2.55;;;16.30;99.90;;;;;;5045806;28;20053;-69
2021/06/11 02:56:21;;;;;;;4.35;2.35;;;16.30;99.90;;;;;;5045955;28;20490;-69
2021/06/11 02:58:54;;;;;;;5.18;2.72;;;16.30;99.90;;;;;;5045632;28;20041;-69
2021/06/11 03:01:21;;;;;;;4.47;2.60;;;16.30;99.90;;;;;;5046208;28;20060;-69
2021/06/11 03:03:50;;;;;;;5.57;2.85;;;16.20;99.90;;;;;;5045777;28;20043;-70
2021/06/11 03:06:17;;;;;;;5.47;2.47;;;16.20;99.90;;;;;;5045380;28;20037;-69
2021/06/11 03:08:45;;;;;;;6.03;3.20;;;16.20;99.90;;;;;;5060831;28;20033;-71
2021/06/11 03:11:25;;;;;;;9.05;3.38;;;16.20;99.90;;;;;;5045411;28;20053;-70
2021/06/11 03:13:51;;;;;;;5.30;2.65;;;16.20;99.90;;;;;;5045767;28;20092;-72
2021/06/11 03:16:17;;;;;;;3.70;2.55;;;16.20;99.90;;;;;;5045408;28;20042;-71
2021/06/11 03:18:45;;;;;;;4.40;2.63;;;16.20;99.90;;;;;;5045041;28;20035;-70
2021/06/11 03:21:19;;;;;;;5.65;2.88;;;16.20;99.90;;;;;;5044949;28;20049;-69
2021/06/11 03:23:54;;;;;;;4.35;2.38;;;16.10;99.90;;;;;;5045322;28;20051;-70
2021/06/11 03:26:26;;;;;;;5.43;2.55;;;16.20;99.90;;;;;;5045182;28;20033;-70
2021/06/11 03:28:54;;;;;;;4.00;2.53;;;16.10;99.90;;;;;;5045576;28;20128;-70
2021/06/11 03:31:25;;;;;;;12.77;2.80;;;16.10;99.90;;;;;;5043235;28;20064;-70
2021/06/11 03:33:55;;;;;;;4.15;2.33;;;16.10;99.90;;;;;;5044787;28;20032;-70
2021/06/11 03:36:27;;;;;;;5.53;2.92;;;16.20;99.90;;;;;;5045189;28;20036;-69
2021/06/11 03:38:57;;;;;;;9.90;2.35;;;16.20;99.90;;;;;;5045042;28;20410;-71
2021/06/11 03:41:23;;;;;;;3.78;2.00;;;16.20;99.90;;;;;;5043516;28;20026;-71
2021/06/11 03:43:50;;;;;;;5.25;2.90;;;16.20;99.90;;;;;;5044946;28;20052;-70
2021/06/11 03:46:17;;;;;;;9.10;2.88;;;16.20;99.90;;;;;;5044890;28;20029;-70
2021/06/11 03:48:46;;;;;;;6.22;3.15;;;16.20;99.90;;;;;;5044604;28;20029;-70
2021/06/11 03:51:12;;;;;;;7.00;2.22;;;16.20;99.90;;;;;;5044732;28;20021;-71
2021/06/11 03:53:40;;;;;;;4.78;2.58;;;16.20;99.90;;;;;;5044255;28;20124;-70
2021/06/11 03:56:08;;;;;;;4.43;2.47;;;16.20;99.90;;;;;;5043097;28;20429;-71
2021/06/11 03:58:42;;;;;;;9.02;2.60;;;16.20;99.90;;;;;;5044542;28;20026;-72
2021/06/11 04:01:10;;;;;;;;;;;16.20;99.90;;;;;;5045006;28;20040;-69
2021/06/11 04:03:39;;;;;;;4.15;2.47;;;16.30;99.90;;;;;;5059942;28;19905;-70
2021/06/11 04:06:09;;;;;;;6.43;2.80;;;16.30;99.90;;;;;;5044712;28;20036;-71
2021/06/11 04:08:35;;;;;;;5.18;2.80;;;16.30;99.90;;;;;;5044359;28;20021;-70
2021/06/11 04:11:03;;;;;;;4.35;2.97;;;16.30;99.90;;;;;;5044725;28;20021;-71
2021/06/11 04:13:50;;;;;;;7.13;3.17;;;16.40;99.90;;;;;;5044639;28;20025;-71
2021/06/11 04:16:36;;;;;;;4.38;2.08;;;16.50;99.90;;;;;;5059640;28;20030;-71
2021/06/11 04:19:03;;;;;;;2.90;2.25;;;16.50;99.90;;;;;;5044609;28;20026;-70
2021/06/11 04:21:33;;;;;;;12.77;2.78;;;16.50;99.90;;;;;;5044545;28;20108;-72
2021/06/11 04:24:06;;;;;;;6.60;2.67;;;16.50;99.90;;;;;;5044626;28;20033;-70
2021/06/11 04:26:34;;;;;;;10.57;3.03;;;16.50;99.90;;;;;;5044431;28;20026;-69
2021/06/11 04:29:06;;;;;;;6.88;3.78;;;16.50;99.90;;;;;;5044276;28;20029;-70
2021/06/11 04:31:32;;;;;;;12.43;3.83;;;16.40;99.90;;;;;;5044606;28;20033;-71
2021/06/11 04:33:59;;;;;;;8.23;3.15;;;16.50;99.90;;;;;;5044402;28;20489;-74
2021/06/11 04:36:25;;;;;;;6.22;3.28;;;16.50;99.90;;;;;;5044157;28;20030;-69
2021/06/11 04:38:59;;;;;;;3.30;2.13;;;16.40;99.90;;;;;;5044675;28;20021;-69
2021/06/11 04:41:26;;;;;;;4.93;2.67;;;16.50;99.90;;;;;;5044238;28;20036;-68
2021/06/11 04:43:53;;;;;;;12.15;3.25;;;16.50;99.90;;;;;;5046500;28;20121;-69
2021/06/11 04:46:19;;;;;;;11.52;3.60;;;16.40;99.90;;;;;;5048302;28;20049;-69
2021/06/11 04:48:45;;;;;;;3.20;2.40;;;16.50;99.90;;;;;;5047783;28;20049;-71
2021/06/11 04:51:11;;;;;;;4.63;2.72;;;16.50;99.90;;;;;;5047747;28;20014;-69
2021/06/11 04:53:36;;;;;;;6.72;3.45;;;16.40;99.90;;;;;;5046788;28;20061;-70
2021/06/11 04:56:07;;;;;;;7.22;3.58;;;16.50;99.90;;;;;;5048293;28;20044;-70
2021/06/11 04:58:33;;;;;;;4.88;3.03;;;16.50;99.90;;;;;;5046779;28;20037;-70
2021/06/11 05:00:58;;;;;;;8.38;3.35;;;16.60;99.90;;;;;;5048174;28;20028;-70
2021/06/11 05:03:24;;;;;;;9.05;3.70;;;16.60;99.90;;;;;;5047829;28;20396;-70
2021/06/11 05:05:49;;;;;;;5.70;2.85;;;16.70;99.90;;;;;;5047931;28;20037;-70
2021/06/11 05:08:15;;;;;;;4.50;3.08;;;16.80;99.90;;;;;;5048052;28;20116;-69
2021/06/11 05:10:41;;;;;;;5.63;3.35;;;16.80;99.90;;;;;;5033842;28;20528;-69
2021/06/11 05:13:06;;;;;;;11.80;4.07;;;16.90;99.90;;;;;;5028040;28;20030;-70
2021/06/11 05:15:32;;;;;;;7.28;4.20;;;16.90;99.90;;;;;;5033140;28;20029;-69
2021/06/11 05:18:05;;;;;;;8.43;4.22;;;17.00;99.90;;;;;;5046154;28;20040;-71
2021/06/11 05:20:31;;;;;;;14.88;4.15;;;17.10;99.90;;;;;;5061987;28;20120;-70
2021/06/11 05:22:57;;;;;;;4.22;3.50;;;17.20;99.90;;;;;;5047651;28;20082;-70
2021/06/11 05:25:22;;;;;;;7.40;4.28;;;17.30;99.90;;;;;;5047414;28;20061;-69
2021/06/11 05:27:48;;;;;;;9.80;3.55;;;17.40;99.90;;;;;;5047551;28;20527;-69
2021/06/11 05:30:14;;;;;;;8.20;3.58;;;17.50;99.90;;;;;;5047500;28;20052;-68
2021/06/11 05:32:39;;;;;;;14.20;3.83;;;17.60;99.90;;;;;;5047166;28;20021;-70
2021/06/11 05:35:06;;;;;;;7.47;4.35;;;17.70;99.90;;;;;;5047547;28;20512;-69
2021/06/11 05:37:31;;;;;;;8.27;4.35;;;17.70;99.90;;;;;;5047157;28;20029;-68
2021/06/11 05:39:57;;;;;;;10.00;5.15;;;17.80;99.90;;;;;;5040013;28;20501;-71
2021/06/11 05:42:22;;;;;;;8.10;4.50;;;17.90;99.90;;;;;;5029149;28;20033;-68
2021/06/11 05:44:48;;;;;;;11.73;3.33;;;18.00;99.90;;;;;;5035856;28;20041;-69
2021/06/11 05:47:14;;;;;;;5.30;3.58;;;18.00;99.90;;;;;;5026110;28;20022;-69
2021/06/11 05:49:39;;;;;;;5.25;3.50;;;18.10;99.90;;;;;;5027291;28;20048;-71
2021/06/11 05:52:05;;;;;;;12.40;4.40;;;18.30;99.90;;;;;;5026380;28;20050;-70
2021/06/11 05:54:30;;;;;;;6.88;3.47;;;18.40;99.90;;;;;;5037413;28;20026;-70
2021/06/11 05:56:57;;;;;;;7.05;3.35;;;18.50;99.90;;;;;;5045510;28;20033;-71
2021/06/11 05:59:22;;;;;;;7.93;3.80;;;18.60;99.90;;;;;;5046797;28;20075;-69
2021/06/11 06:01:48;;;;;;;9.32;4.03;;;18.80;99.90;;;;;;5046815;28;20037;-70
2021/06/11 06:04:14;;;;;;;13.27;4.32;;;18.80;99.90;;;;;;5046759;28;20579;-71
2021/06/11 06:06:39;;;;;;;8.32;3.33;;;18.90;99.90;;;;;;5046302;28;20037;-70
2021/06/11 06:09:05;;;;;;;7.38;3.20;;;19.00;99.90;;;;;;5046404;28;20029;-70
2021/06/11 06:11:31;;;;;;;4.05;2.67;;;19.10;99.90;;;;;;5061967;28;20028;-70
2021/06/11 06:13:56;;;;;;;5.47;2.85;;;19.20;99.90;;;;;;5045871;28;20120;-71
2021/06/11 06:16:22;;;;;;;10.00;2.65;;;19.20;99.90;;;;;;5046789;28;20049;-70
2021/06/11 06:18:48;;;;;;;4.55;2.60;;;19.30;99.90;;;;;;5046378;28;20033;-69
2021/06/11 06:21:13;;;;;;;5.22;2.63;;;19.40;99.90;;;;;;5046601;28;20027;-69
2021/06/11 06:23:39;;;;;;;4.88;3.10;;;19.40;99.90;;;;;;5046757;28;20037;-70
2021/06/11 06:26:05;;;;;;;7.45;2.88;;;19.40;99.90;;;;;;5046154;28;20464;-69
2021/06/11 06:28:31;;;;;;;7.40;4.22;;;19.40;99.90;;;;;;5045159;28;20052;-69
2021/06/11 06:30:57;;;;;;;6.22;2.80;;;19.40;99.90;;;;;;5046387;28;20377;-70
2021/06/11 06:33:23;;;;;;;6.13;3.20;;;19.40;99.90;;;;;;5046111;28;20061;-69
2021/06/11 06:35:48;;;;;;;4.78;2.50;;;19.50;99.90;;;;;;5061571;28;20071;-68
2021/06/11 06:38:14;;;;;;;4.65;2.30;;;19.40;99.90;;;;;;5046166;28;20034;-70
2021/06/11 06:40:41;;;;;;;3.75;1.30;;;19.50;99.90;;;;;;5045759;28;20032;-69
2021/06/11 06:43:06;;;;;;;8.73;2.28;;;19.50;99.90;;;;;;5046187;28;20032;-70
2021/06/11 06:45:33;;;;;;;2.75;1.55;;;19.50;99.90;;;;;;5046160;28;20045;-70
2021/06/11 06:48:01;;;;;;;3.70;1.70;;;19.60;99.90;;;;;;5045918;28;20024;-68
2021/06/11 06:50:27;;;;;;;3.08;1.52;;;19.60;99.90;;;;;;5045915;28;20029;-69
2021/06/11 06:52:55;;;;;;;2.03;1.30;;;19.70;99.90;;;;;;5038175;28;20104;-70
2021/06/11 06:55:21;;;;;;;5.18;1.77;;;19.70;99.90;;;;;;5031022;28;20138;-69
2021/06/11 06:57:46;;;;;;;8.55;1.40;;;19.80;99.90;;;;;;5045831;28;20034;-67
2021/06/11 07:00:12;;;;;;;5.38;2.60;;;19.90;99.90;;;;;;5045712;28;20111;-69
2021/06/11 07:02:38;;;;;;;6.07;1.60;;;19.90;99.90;;;;;;5030286;28;20466;-68
2021/06/11 07:05:05;;;;;;;1.50;1.02;;;19.90;99.90;;;;;;5025744;28;20097;-70
2021/06/11 07:07:30;;;;;;;3.70;1.15;;;20.00;99.90;;;;;;5025659;28;20044;-69
2021/06/11 07:09:57;;;;;;;3.42;1.75;;;20.10;99.90;;;;;;5024426;28;20026;-67
2021/06/11 07:12:26;;;;;;;2.67;1.33;;;20.10;99.90;;;;;;5026149;28;20034;-68
2021/06/11 07:14:53;;;;;;;2.35;1.08;;;20.30;99.90;;;;;;5025276;28;20469;-68
2021/06/11 07:17:18;;;;;;;1.40;1.08;;;20.30;99.90;;;;;;5040663;28;20048;-68
2021/06/11 07:19:44;;;;;;;2.88;0.85;;;20.40;99.90;;;;;;5026187;28;20063;-70
2021/06/11 07:22:10;;;;;;;1.55;0.77;;;20.40;99.90;;;;;;5026380;28;20034;-69
2021/06/11 07:24:37;;;;;;;4.13;1.27;;;20.50;99.90;;;;;;5025817;28;20038;-69
2021/06/11 07:27:04;;;;;;;1.73;1.00;;;20.60;99.90;;;;;;5024575;28;20068;-69
2021/06/11 07:29:30;;;;;;;1.88;1.08;;;20.70;99.90;;;;;;5025348;28;20505;-68
2021/06/11 07:31:56;;;;;;;7.35;1.55;;;20.80;99.90;;;;;;5025935;28;20026;-69
2021/06/11 07:34:21;;;;;;;2.50;1.25;;;20.90;99.90;;;;;;5023965;28;20026;-67
2021/06/11 07:36:47;;;;;;;2.25;1.13;;;20.90;99.90;;;;;;5025034;28;20032;-70
2021/06/11 07:39:13;;;;;;;1.92;1.35;;;21.00;99.90;;;;;;5025135;28;20026;-67
2021/06/11 07:41:38;;;;;;;1.77;0.98;;;21.10;99.90;;;;;;5024815;28;20091;-69
2021/06/11 07:44:04;;;;;;;2.33;1.20;;;21.20;99.90;;;;;;5024915;28;20389;-68
2021/06/11 07:46:36;;;;;;;1.95;1.38;;;21.20;99.90;;;;;;5025289;28;20025;-73
2021/06/11 07:49:04;;;;;;;2.70;1.30;;;21.30;99.90;;;;;;5023633;28;20030;-68
2021/06/11 07:51:30;;;;;;;6.10;1.75;;;21.30;99.90;;;;;;5024907;28;20038;-69
2021/06/11 07:53:55;;;;;;;3.30;1.73;;;21.40;99.90;;;;;;5025325;28;20054;-67
2021/06/11 07:56:21;;;;;;;1.85;0.95;;;21.50;99.90;;;;;;5024896;28;20117;-69
2021/06/11 07:58:47;;;;;;;5.57;1.50;;;21.60;99.90;;;;;;5025151;28;20033;-69
2021/06/11 08:01:12;;;;;;;1.73;1.20;;;21.70;99.90;;;;;;5025123;28;20062;-69
2021/06/11 08:03:38;;;;;;;1.48;1.00;;;21.80;99.90;;;;;;5023648;28;20064;-69
2021/06/11 08:06:03;;;;;;;1.98;1.50;;;21.80;99.90;;;;;;5024915;28;20049;-67
2021/06/11 08:08:29;;;;;;;2.03;1.25;;;21.80;99.90;;;;;;5024902;28;20049;-68
2021/06/11 08:10:55;;;;;;;4.35;1.40;;;21.90;99.90;;;;;;5024773;28;20064;-71
2021/06/11 08:13:21;;;;;;;5.45;1.70;;;22.00;99.90;;;;;;5024673;28;20053;-67
2021/06/11 08:15:46;;;;;;;2.13;1.48;;;22.00;99.90;;;;;;5024918;28;20057;-67
2021/06/11 08:18:12;;;;;;;2.78;1.77;;;22.00;99.90;;;;;;5025834;28;20018;-69
2021/06/11 08:20:38;;;;;;;6.32;1.90;;;22.10;99.90;;;;;;5035912;28;20032;-68
2021/06/11 08:23:05;;;;;;;3.03;1.60;;;22.10;99.90;;;;;;5026539;28;20467;-72
2021/06/11 08:25:33;;;;;;;2.90;1.85;;;22.20;99.90;;;;;;5034822;28;20084;-69
2021/06/11 08:27:59;;;;;;;2.70;1.90;;;22.20;99.90;;;;;;5031590;28;20056;-69
2021/06/11 08:30:25;;;;;;;2.78;1.75;;;22.30;99.90;;;;;;5043802;28;20032;-70
2021/06/11 08:32:52;;;;;;;3.90;1.75;;;22.40;99.90;;;;;;5043767;28;20120;-68
2021/06/11 08:35:18;;;;;;;2.28;1.50;;;22.50;99.90;;;;;;5044093;28;20067;-68
2021/06/11 08:37:46;;;;;;;1.40;1.30;;;22.50;99.90;;;;;;5043790;28;20382;-69
2021/06/11 08:40:12;;;;;;;2.55;1.45;;;22.60;99.90;;;;;;5044003;28;20075;-69
2021/06/11 08:42:38;;;;;;;2.05;1.38;;;22.70;99.90;;;;;;5044407;28;20036;-69
2021/06/11 08:45:07;;;;;;;2.65;1.73;;;22.70;99.90;;;;;;5043909;28;20042;-69
2021/06/11 08:47:33;;;;;;;2.88;1.38;;;22.80;99.90;;;;;;5032794;28;20022;-71
2021/06/11 08:50:00;;;;;;;2.10;1.45;;;22.80;99.90;;;;;;5035749;28;20033;-70
2021/06/11 08:52:31;;;;;;;3.63;1.80;;;22.90;99.90;;;;;;5033876;28;20083;-75
2021/06/11 08:54:57;;;;;;;6.70;1.75;;;23.00;99.90;;;;;;5039098;28;20104;-70
2021/06/11 08:57:23;;;;;;;6.80;2.20;;;23.00;99.90;;;;;;5033305;28;20180;-70
2021/06/11 08:59:49;;;;;;;3.10;1.83;;;23.10;99.90;;;;;;5029428;28;20592;-70
2021/06/11 09:02:15;;;;;;;3.28;1.80;;;23.20;99.90;;;;;;5041856;28;20108;-69
2021/06/11 09:04:50;;;;;;;4.88;2.38;;;23.30;99.90;;;;;;5029305;28;20481;-69
2021/06/11 09:07:25;;;;;;;4.40;2.10;;;23.30;99.90;;;;;;5036436;28;20037;-69
2021/06/11 09:09:56;;;;;;;2.80;2.05;;;23.40;99.90;;;;;;5031563;28;20022;-70
2021/06/11 09:12:28;;;;;;;8.60;2.25;;;23.50;99.90;;;;;;5023992;28;20030;-71
2021/06/11 09:14:55;;;;;;;9.82;1.80;;;23.60;99.90;;;;;;5024308;28;20480;-71
2021/06/11 09:17:33;;;;;;;2.67;1.75;;;23.70;99.90;;;;;;5024462;28;20382;-70
2021/06/11 09:20:11;;;;;;;3.17;1.75;;;23.80;99.90;;;;;;5023942;28;20018;-71
2021/06/11 09:22:53;;;;;;;5.97;2.53;;;23.90;99.90;;;;;;5024031;28;20033;-71
2021/06/11 09:25:24;;;;;;;2.80;1.80;;;24.00;99.90;;;;;;5049999;28;20115;-72
2021/06/11 09:27:51;;;;;;;2.88;1.67;;;24.10;99.90;;;;;;5027724;28;20033;-70
2021/06/11 09:30:17;;;;;;;3.35;2.28;;;24.20;99.90;;;;;;5035148;28;20044;-71
2021/06/11 09:32:58;;;;;;;2.90;1.88;;;24.30;99.90;;;;;;5042872;28;20030;-71
2021/06/11 09:35:34;;;;;;;7.82;2.50;;;24.40;99.90;;;;;;5027832;28;20085;-68
2021/06/11 09:38:28;;;;;;;8.07;3.00;;;24.40;99.90;;;;;;5027809;28;20030;-69
2021/06/11 09:40:57;;;;;;;5.60;2.03;;;24.50;99.90;;;;;;5041399;28;20046;-73
2021/06/11 09:43:23;;;;;;;4.28;2.13;;;24.50;99.90;;;;;;5027549;28;20036;-71
2021/06/11 09:46:04;;;;;;;2.30;1.50;;;24.70;99.90;;;;;;5029431;28;20046;-70
2021/06/11 09:48:46;;;;;;;5.10;2.33;;;24.80;99.90;;;;;;5027213;28;20030;-70
2021/06/11 09:51:16;;;;;;;3.97;2.13;;;24.90;99.90;;;;;;5046290;28;20034;-70
2021/06/11 09:53:42;;;;;;;3.42;2.22;;;25.00;99.90;;;;;;5046808;28;20045;-69
2021/06/11 09:56:19;;;;;;;3.42;1.85;;;25.00;99.90;;;;;;5046904;28;20041;-71
2021/06/11 09:58:44;;;;;;;4.00;1.92;;;25.10;99.90;;;;;;5045830;28;20033;-73
2021/06/11 10:01:11;;;;;;;3.10;1.77;;;25.20;99.90;;;;;;5046148;28;20033;-69
2021/06/11 10:03:39;;;;;;;5.47;2.22;;;25.30;99.90;;;;;;5046062;28;20085;-72
2021/06/11 10:06:08;;;;;;;3.83;1.75;;;25.40;99.90;;;;;;5044813;28;20048;-69
2021/06/11 10:08:35;;;;;;;3.97;2.50;;;25.40;99.90;;;;;;5045936;28;20057;-72
2021/06/11 10:11:04;;;;;;;2.60;1.83;;;25.60;99.90;;;;;;5046147;28;20037;-75
2021/06/11 10:13:31;;;;;;;2.95;1.77;;;25.60;99.90;;;;;;5046371;28;20032;-74
2021/06/11 10:16:08;;;;;;;2.92;2.03;;;25.60;99.90;;;;;;5046034;28;20026;-73
2021/06/11 10:18:34;;;;;;;3.30;2.05;;;25.60;99.90;;;;;;5046055;28;20029;-70
2021/06/11 10:21:01;;;;;;;2.55;1.85;;;25.60;99.90;;;;;;5046118;28;20860;-70
2021/06/11 10:23:30;;;;;;;3.05;1.92;;;25.60;99.90;;;;;;5046072;28;20113;-71
2021/06/11 10:25:59;;;;;;;1.95;1.35;;;25.70;99.90;;;;;;5043421;28;20101;-71
2021/06/11 10:28:31;;;;;;;5.03;2.47;;;25.80;99.90;;;;;;5040160;28;20529;-73
2021/06/11 10:31:00;;;;;;;3.95;1.85;;;25.90;99.90;;;;;;5026009;28;20029;-72
2021/06/11 10:33:44;;;;;;;2.95;1.52;;;26.10;99.90;;;;;;5026117;28;20506;-72
2021/06/11 10:36:36;;;;;;;4.15;1.55;;;26.20;99.90;;;;;;5036563;28;20033;-70
2021/06/11 10:39:10;;;;;;;3.30;1.67;;;26.40;99.90;;;;;;5045338;28;20135;-68
2021/06/11 10:42:03;;;;;;;2.35;1.45;;;26.60;99.90;;;;;;5044920;28;20026;-72
2021/06/11 10:44:45;;;;;;;5.47;1.13;;;26.60;99.90;;;;;;5045094;28;20090;-72
2021/06/11 10:47:16;;;;;;;3.47;1.23;;;26.40;99.90;;;;;;5045383;28;20074;-70
2021/06/11 10:49:58;;;;;;;2.58;1.00;;;26.50;99.90;;;;;;5044891;28;20053;-69
2021/06/11 10:52:43;;;;;;;1.70;1.05;;;26.70;99.90;;;;;;5044556;28;20061;-71
2021/06/11 10:55:17;;;;;;;4.60;1.20;;;26.90;99.90;;;;;;5044818;28;20025;-72
2021/06/11 10:57:52;;;;;;;2.22;1.30;;;27.10;99.90;;;;;;5044705;28;20036;-71
2021/06/11 11:00:22;;;;;;;2.03;1.40;;;27.00;99.90;;;;;;5044733;28;20357;-72
2021/06/11 11:02:50;;;;;;;1.88;1.35;;;27.20;99.90;;;;;;5042216;28;20421;-69
2021/06/11 11:05:36;;;;;;;2.17;1.38;;;27.20;99.90;;;;;;5044853;28;20037;-70
2021/06/11 11:08:09;;;;;;;2.13;1.42;;;27.00;99.90;;;;;;5045490;28;20025;-69
2021/06/11 11:10:43;;;;;;;2.30;0.77;;;26.90;99.90;;;;;;5044683;28;20564;-70
2021/06/11 11:13:16;;;;;;;2.05;1.30;;;26.80;99.90;;;;;;5044176;28;20466;-70
2021/06/11 11:15:48;;;;;;;3.13;1.40;;;27.10;99.90;;;;;;5044576;28;20030;-70
2021/06/11 11:18:15;;;;;;;3.45;1.40;;;27.50;99.90;;;;;;5045427;28;20025;-71
2021/06/11 11:20:42;;;;;;;3.22;1.15;;;27.90;99.90;;;;;;5043413;28;20025;-72
2021/06/11 11:23:14;;;;;;;6.20;1.92;;;28.10;99.90;;;;;;5034925;28;20052;-75
2021/06/11 11:25:41;;;;;;;2.30;1.13;;;28.00;99.90;;;;;;5026716;28;20371;-71
2021/06/11 11:28:09;;;;;;;3.47;2.03;;;27.80;99.90;;;;;;5025073;28;20486;-71
2021/06/11 11:30:35;;;;;;;4.05;1.63;;;27.70;99.90;;;;;;5025256;28;20018;-71
2021/06/11 11:33:03;;;;;;;2.20;1.67;;;27.50;99.90;;;;;;5024538;28;20034;-70
2021/06/11 11:35:32;;;;;;;4.30;1.33;;;27.20;99.90;;;;;;5025650;28;20025;-72
2021/06/11 11:38:02;;;;;;;1.70;1.25;;;27.30;99.90;;;;;;5040505;28;20033;-70
2021/06/11 11:40:29;;;;;;;3.75;1.45;;;27.60;99.90;;;;;;5025151;28;20086;-71
2021/06/11 11:42:58;;;;;;;1.77;1.10;;;27.90;99.90;;;;;;5025617;28;20053;-71
2021/06/11 11:45:25;;;;;;;1.60;1.27;;;28.40;99.90;;;;;;5025107;28;20121;-71
2021/06/11 11:47:52;;;;;;;7.32;1.30;;;28.80;99.90;;;;;;5024897;28;20022;-71
2021/06/11 11:50:26;;;;;;;1.88;1.10;;;28.80;99.90;;;;;;5025387;28;20386;-72
2021/06/11 11:52:53;;;;;;;1.60;0.98;;;29.10;99.90;;;;;;5023938;28;20061;-71
2021/06/11 11:55:18;;;;;;;1.60;0.93;;;28.90;99.90;;;;;;5025156;28;20036;-70
2021/06/11 11:57:45;;;;;;;1.50;0.98;;;28.50;99.90;;;;;;5023746;28;20034;-69
2021/06/11 12:00:12;;;;;;;1.13;1.00;;;28.30;99.90;;;;;;5024735;28;20026;-70
2021/06/11 12:02:38;;;;;;;3.03;1.40;;;28.50;99.90;;;;;;5024718;28;20026;-70
2021/06/11 12:05:05;;;;;;;1.60;1.13;;;28.90;99.90;;;;;;5024881;28;20097;-72
2021/06/11 12:07:31;;;;;;;0.98;0.75;;;29.30;99.90;;;;;;5024695;28;20109;-71
2021/06/11 12:09:58;;;;;;;1.48;0.80;;;29.60;99.90;;;;;;5040338;28;20029;-71
2021/06/11 12:12:25;;;;;;;0.65;0.60;;;30.00;99.90;;;;;;5025095;28;20390;-72
2021/06/11 12:14:51;;;;;;;1.52;0.80;;;30.40;99.90;;;;;;5024577;28;20034;-72
2021/06/11 12:17:17;;;;;;;1.48;1.00;;;30.80;99.90;;;;;;5025121;28;20065;-69
2021/06/11 12:19:42;;;;;;;1.38;0.80;;;31.20;99.90;;;;;;5024763;28;20068;-71
2021/06/11 12:22:08;;;;;;;1.10;0.85;;;31.30;99.90;;;;;;5024456;28;20087;-71
2021/06/11 12:24:34;;;;;;;0.50;0.50;;;31.10;99.90;;;;;;5040041;28;20132;-70
2021/06/11 12:27:01;;;;;;;2.88;0.90;;;30.70;99.90;;;;;;5024752;28;20026;-72
2021/06/11 12:29:27;;;;;;;0.98;0.73;;;30.20;99.90;;;;;;5024704;28;20034;-70
2021/06/11 12:31:52;;;;;;;2.00;0.80;;;30.00;99.90;;;;;;5024882;28;20046;-71
2021/06/11 12:34:19;;;;;;;0.85;0.50;;;29.70;99.90;;;;;;5024411;28;20821;-70
2021/06/11 12:36:45;;;;;;;4.43;0.88;;;29.40;99.90;;;;;;5024358;28;20030;-70
2021/06/11 12:39:12;;;;;;;0.95;0.68;;;28.80;99.40;;;;;;5024569;28;20032;-70
2021/06/11 12:41:38;;;;;;;0.98;0.60;;;28.40;99.90;;;;;;5024695;28;20030;-69
2021/06/11 12:44:15;;;;;;;1.05;0.60;;;28.70;99.70;;;;;;5024059;28;20087;-70
2021/06/11 12:46:46;;;;;;;1.08;0.77;;;28.90;99.90;;;;;;5039800;28;20029;-72
2021/06/11 12:49:12;;;;;;;2.42;1.17;;;28.90;99.90;;;;;;5024442;28;20040;-70
2021/06/11 12:51:38;;;;;;;2.17;1.00;;;28.80;99.90;;;;;;5024186;28;20092;-71